createdAt,value
2022-12-23T00:01:04.822Z,11.95
2022-12-23T00:03:33.753Z,12.01
2022-12-23T00:06:09.294Z,12.05
2022-12-23T00:08:36.896Z,12.07
2022-12-23T00:11:04.956Z,12.01
2022-12-23T00:13:51.779Z,11.96
2022-12-23T00:16:18.699Z,12.00
2022-12-23T00:18:48.562Z,12.05
2022-12-23T00:21:17.330Z,12.15
2022-12-23T00:23:48.691Z,12.13
2022-12-23T00:26:24.844Z,12.09
2022-12-23T00:28:51.521Z,12.10
2022-12-23T00:31:19.652Z,11.97
2022-12-23T00:33:47.552Z,11.80
2022-12-23T00:36:15.345Z,11.91
2022-12-23T00:39:02.932Z,12.01
2022-12-23T00:41:48.059Z,12.10
2022-12-23T00:44:15.081Z,12.13
2022-12-23T00:46:41.884Z,12.12
2022-12-23T00:49:27.423Z,12.15
2022-12-23T00:51:54.293Z,12.17
2022-12-23T00:54:44.642Z,12.19
2022-12-23T00:57:11.576Z,12.14
2022-12-23T00:59:38.148Z,12.20
2022-12-23T01:02:26.246Z,12.22
2022-12-23T01:05:11.622Z,12.28
2022-12-23T01:07:38.392Z,12.29
2022-12-23T01:10:05.443Z,12.31
2022-12-23T01:12:35.287Z,12.40
2022-12-23T01:15:02.159Z,12.37
2022-12-23T01:17:31.769Z,12.38
2022-12-23T01:19:58.635Z,12.33
2022-12-23T01:22:27.816Z,12.39
2022-12-23T01:24:56.908Z,12.41
2022-12-23T01:27:26.466Z,12.41
2022-12-23T01:29:55.991Z,12.39
2022-12-23T01:32:22.474Z,12.38
2022-12-23T01:34:49.167Z,12.43
2022-12-23T01:37:16.929Z,12.34
2022-12-23T01:39:43.736Z,12.32
2022-12-23T01:42:51.349Z,12.23
2022-12-23T01:45:27.864Z,12.27
2022-12-23T01:47:57.091Z,12.31
2022-12-23T01:50:34.608Z,12.35
2022-12-23T01:53:08.080Z,12.48
2022-12-23T01:55:43.718Z,12.50
2022-12-23T01:58:15.228Z,12.56
2022-12-23T02:01:00.870Z,12.49
2022-12-23T02:03:44.020Z,12.43
2022-12-23T02:06:31.716Z,12.44
2022-12-23T02:09:17.166Z,12.47
2022-12-23T02:11:55.988Z,12.53
2022-12-23T02:15:02.078Z,12.51
2022-12-23T02:17:50.511Z,12.58
2022-12-23T02:20:30.772Z,12.59
2022-12-23T02:23:18.717Z,12.61
2022-12-23T02:25:48.284Z,12.58
2022-12-23T02:28:37.943Z,12.62
2022-12-23T02:31:19.775Z,12.60
2022-12-23T02:33:51.128Z,12.60
2022-12-23T02:36:17.851Z,12.56
2022-12-23T02:38:48.481Z,12.58
2022-12-23T02:41:21.059Z,12.63
2022-12-23T02:43:47.704Z,12.69
2022-12-23T02:46:20.600Z,12.68
2022-12-23T02:48:56.722Z,12.67
2022-12-23T02:51:26.379Z,12.61
2022-12-23T02:53:55.840Z,12.47
2022-12-23T02:56:24.021Z,12.33
2022-12-23T02:58:58.672Z,12.35
2022-12-23T03:01:30.074Z,12.46
2022-12-23T03:03:56.970Z,12.46
2022-12-23T03:06:35.825Z,12.44
2022-12-23T03:09:02.432Z,12.52
2022-12-23T03:11:41.429Z,12.58
2022-12-23T03:14:18.490Z,12.65
2022-12-23T03:16:45.056Z,12.71
2022-12-23T03:19:14.777Z,12.71
2022-12-23T03:21:44.396Z,12.73
2022-12-23T03:24:31.413Z,12.75
2022-12-23T03:27:06.960Z,12.77
2022-12-23T03:29:52.286Z,12.73
2022-12-23T03:32:20.266Z,12.76
2022-12-23T03:34:48.432Z,12.76
2022-12-23T03:37:19.292Z,12.74
2022-12-23T03:39:48.367Z,12.61
2022-12-23T03:42:24.311Z,12.58
2022-12-23T03:45:19.638Z,12.58
2022-12-23T03:47:46.988Z,12.56
2022-12-23T03:50:15.551Z,12.57
2022-12-23T03:53:00.687Z,12.59
2022-12-23T03:55:35.858Z,12.66
2022-12-23T03:58:24.172Z,12.69
2022-12-23T04:00:55.710Z,12.75
2022-12-23T04:03:26.927Z,12.83
2022-12-23T04:05:57.489Z,12.85
2022-12-23T04:08:30.157Z,12.88
2022-12-23T04:10:57.163Z,12.94
2022-12-23T04:13:23.748Z,12.98
2022-12-23T04:15:50.499Z,12.98
2022-12-23T04:18:17.112Z,13.02
2022-12-23T04:20:43.752Z,13.04
2022-12-23T04:23:10.349Z,13.05
2022-12-23T04:25:36.984Z,13.03
2022-12-23T04:28:03.669Z,13.00
2022-12-23T04:30:34.321Z,13.02
2022-12-23T04:33:01.742Z,13.05
2022-12-23T04:35:28.278Z,13.08
2022-12-23T04:37:56.004Z,13.09
2022-12-23T04:40:22.666Z,13.11
2022-12-23T04:42:49.187Z,13.14
2022-12-23T04:45:17.499Z,13.17
2022-12-23T04:47:44.001Z,13.19
2022-12-23T04:50:15.746Z,13.21
2022-12-23T04:52:43.104Z,13.24
2022-12-23T04:55:10.214Z,13.24
2022-12-23T04:57:36.957Z,13.25
2022-12-23T05:00:04.756Z,13.23
2022-12-23T05:02:31.484Z,13.24
2022-12-23T05:04:58.191Z,13.27
2022-12-23T05:07:25.058Z,13.28
2022-12-23T05:09:51.725Z,13.25
2022-12-23T05:12:18.304Z,13.23
2022-12-23T05:14:45.005Z,13.23
2022-12-23T05:17:11.473Z,13.24
2022-12-23T05:19:38.031Z,13.22
2022-12-23T05:22:04.707Z,13.20
2022-12-23T05:24:34.250Z,13.23
2022-12-23T05:27:00.905Z,13.22
2022-12-23T05:29:27.833Z,13.26
2022-12-23T05:31:54.443Z,13.30
2022-12-23T05:34:21.493Z,13.32
2022-12-23T05:36:48.031Z,13.33
2022-12-23T05:39:14.654Z,13.32
2022-12-23T05:41:41.188Z,13.31
2022-12-23T05:44:07.867Z,13.29
2022-12-23T05:46:37.581Z,13.31
2022-12-23T05:49:04.251Z,13.33
2022-12-23T05:51:30.977Z,13.34
2022-12-23T05:53:59.760Z,13.34
2022-12-23T05:56:28.746Z,13.34
2022-12-23T05:58:55.302Z,13.32
2022-12-23T06:01:21.783Z,13.29
2022-12-23T06:03:48.487Z,13.27
2022-12-23T06:06:15.394Z,13.30
2022-12-23T06:08:44.224Z,13.33
2022-12-23T06:11:13.184Z,13.36
2022-12-23T06:13:39.764Z,13.36
2022-12-23T06:16:08.966Z,13.34
2022-12-23T06:18:37.860Z,13.35
2022-12-23T06:21:04.525Z,13.36
2022-12-23T06:23:31.279Z,13.34
2022-12-23T06:25:58.559Z,13.33
2022-12-23T06:28:25.312Z,13.34
2022-12-23T06:30:55.865Z,13.32
2022-12-23T06:33:22.559Z,13.19
2022-12-23T06:35:49.246Z,13.14
2022-12-23T06:38:15.835Z,13.17
2022-12-23T06:40:42.525Z,13.18
2022-12-23T06:43:10.861Z,13.17
2022-12-23T06:45:41.529Z,13.17
2022-12-23T06:48:08.226Z,13.18
2022-12-23T06:50:34.910Z,13.17
2022-12-23T06:53:01.568Z,13.16
2022-12-23T06:55:30.478Z,13.17
2022-12-23T06:57:57.113Z,13.21
2022-12-23T07:00:26.107Z,13.27
2022-12-23T07:02:56.099Z,13.30
2022-12-23T07:05:22.973Z,13.29
2022-12-23T07:07:49.528Z,13.31
2022-12-23T07:10:19.236Z,13.33
2022-12-23T07:12:50.496Z,13.30
2022-12-23T07:15:17.507Z,13.30
2022-12-23T07:17:44.080Z,13.30
2022-12-23T07:20:12.981Z,13.31
2022-12-23T07:22:39.664Z,13.28
2022-12-23T07:25:06.466Z,13.21
2022-12-23T07:27:33.229Z,13.11
2022-12-23T07:29:59.773Z,13.00
2022-12-23T07:32:26.275Z,12.87
2022-12-23T07:34:52.757Z,12.74
2022-12-23T07:37:19.290Z,12.67
2022-12-23T07:39:47.737Z,12.67
2022-12-23T07:42:43.541Z,12.66
2022-12-23T07:45:03.197Z,12.74
2022-12-23T07:47:29.834Z,12.83
2022-12-23T07:49:56.549Z,12.97
2022-12-23T07:52:25.510Z,13.05
2022-12-23T07:54:52.075Z,13.04
2022-12-23T07:57:18.824Z,13.05
2022-12-23T07:59:45.480Z,13.01
2022-12-23T08:02:12.239Z,13.02
2022-12-23T08:04:46.080Z,13.06
2022-12-23T08:07:13.045Z,13.10
2022-12-23T08:09:39.638Z,13.11
2022-12-23T08:12:08.456Z,13.19
2022-12-23T08:14:34.980Z,13.32
2022-12-23T08:17:02.061Z,13.45
2022-12-23T08:19:28.941Z,13.55
2022-12-23T08:21:55.412Z,13.60
2022-12-23T08:24:24.367Z,13.68
2022-12-23T08:26:53.894Z,13.73
2022-12-23T08:29:20.994Z,13.77
2022-12-23T08:31:47.691Z,13.80
2022-12-23T08:34:14.456Z,13.84
2022-12-23T08:36:41.034Z,13.88
2022-12-23T08:39:11.460Z,13.92
2022-12-23T08:41:43.081Z,13.93
2022-12-23T08:44:09.634Z,13.96
2022-12-23T08:46:36.786Z,13.98
2022-12-23T08:49:04.157Z,13.93
2022-12-23T08:51:31.022Z,13.89
2022-12-23T08:54:01.040Z,13.91
2022-12-23T08:56:29.531Z,13.90
2022-12-23T08:58:56.788Z,13.92
2022-12-23T09:01:24.856Z,13.97
2022-12-23T09:03:51.501Z,13.99
2022-12-23T09:06:26.492Z,13.99
2022-12-23T09:08:55.551Z,13.98
2022-12-23T09:11:23.665Z,13.95
2022-12-23T09:13:50.418Z,13.97
2022-12-23T09:16:17.607Z,13.98
2022-12-23T09:18:44.130Z,14.00
2022-12-23T09:21:13.867Z,14.01
2022-12-23T09:23:40.806Z,14.02
2022-12-23T09:26:08.194Z,14.01
2022-12-23T09:28:34.734Z,14.02
2022-12-23T09:31:10.611Z,13.98
2022-12-23T09:33:37.078Z,13.98
2022-12-23T09:36:04.538Z,13.98
2022-12-23T09:38:31.405Z,14.05
2022-12-23T09:41:16.506Z,14.09
2022-12-23T09:43:53.209Z,14.13
2022-12-23T09:46:24.108Z,14.14
2022-12-23T09:48:53.820Z,14.19
2022-12-23T09:51:22.459Z,14.25
2022-12-23T09:53:59.065Z,14.29
2022-12-23T09:56:40.290Z,14.25
2022-12-23T09:59:07.764Z,14.18
2022-12-23T10:01:49.635Z,14.14
2022-12-23T10:04:16.328Z,14.16
2022-12-23T10:06:45.105Z,14.15
2022-12-23T10:09:13.525Z,14.15
2022-12-23T10:11:41.632Z,14.17
2022-12-23T10:14:14.450Z,14.17
2022-12-23T10:16:43.990Z,14.25
2022-12-23T10:19:33.297Z,14.26
2022-12-23T10:22:06.171Z,14.28
2022-12-23T10:24:40.873Z,14.27
2022-12-23T10:27:13.530Z,14.23
2022-12-23T10:29:40.740Z,14.19
2022-12-23T10:32:26.204Z,14.21
2022-12-23T10:34:53.057Z,14.25
2022-12-23T10:37:27.908Z,14.26
2022-12-23T10:39:54.500Z,14.28
2022-12-23T10:42:32.933Z,14.23
2022-12-23T10:45:18.300Z,14.17
2022-12-23T10:47:55.831Z,14.14
2022-12-23T10:50:35.110Z,14.15
2022-12-23T10:53:03.384Z,14.16
2022-12-23T10:55:35.814Z,14.17
2022-12-23T10:58:23.813Z,14.15
2022-12-23T11:00:55.257Z,14.18
2022-12-23T11:03:26.583Z,14.19
2022-12-23T11:05:54.026Z,14.14
2022-12-23T11:08:21.208Z,14.11
2022-12-23T11:10:48.519Z,14.12
2022-12-23T11:13:26.044Z,14.16
2022-12-23T11:15:53.020Z,14.19
2022-12-23T11:18:20.649Z,14.22
2022-12-23T11:21:16.512Z,14.29
2022-12-23T11:23:43.031Z,14.38
2022-12-23T11:26:12.126Z,14.49
2022-12-23T11:28:40.839Z,14.56
2022-12-23T11:31:12.069Z,14.58
2022-12-23T11:33:48.728Z,14.56
2022-12-23T11:36:19.640Z,14.53
2022-12-23T11:38:50.764Z,14.53
2022-12-23T11:41:22.392Z,14.53
2022-12-23T11:44:12.258Z,14.52
2022-12-23T11:46:39.020Z,14.40
2022-12-23T11:49:06.930Z,14.26
2022-12-23T11:51:33.823Z,14.17
2022-12-23T11:54:01.616Z,14.11
2022-12-23T11:56:29.353Z,14.10
2022-12-23T11:59:03.331Z,14.17
2022-12-23T12:01:29.919Z,14.24
2022-12-23T12:04:06.222Z,14.17
2022-12-23T12:06:33.420Z,14.12
2022-12-23T12:09:01.360Z,14.10
2022-12-23T12:11:45.005Z,14.06
2022-12-23T12:14:19.900Z,14.08
2022-12-23T12:17:02.779Z,14.10
2022-12-23T12:19:32.129Z,14.01
2022-12-23T12:22:10.302Z,14.06
2022-12-23T12:24:40.431Z,14.04
2022-12-23T12:27:10.367Z,13.97
2022-12-23T12:29:42.963Z,13.93
2022-12-23T12:32:15.731Z,13.97
2022-12-23T12:35:02.975Z,14.01
2022-12-23T12:37:42.982Z,14.04
2022-12-23T12:40:35.725Z,13.98
2022-12-23T12:43:25.618Z,13.96
2022-12-23T12:45:58.784Z,13.78
2022-12-23T12:48:25.360Z,13.76
2022-12-23T12:51:02.590Z,13.79
2022-12-23T12:53:30.414Z,13.85
2022-12-23T12:56:00.121Z,13.90
2022-12-23T12:58:26.885Z,13.96
2022-12-23T13:00:53.575Z,14.01
2022-12-23T13:03:29.547Z,14.07
2022-12-23T13:06:13.471Z,13.98
2022-12-23T13:08:52.212Z,13.93
2022-12-23T13:11:30.116Z,13.80
2022-12-23T13:14:02.682Z,13.83
2022-12-23T13:16:29.268Z,13.86
2022-12-23T13:19:00.729Z,13.78
2022-12-23T13:21:46.055Z,13.87
2022-12-23T13:24:21.635Z,13.86
2022-12-23T13:26:54.389Z,13.92
2022-12-23T13:29:34.507Z,14.04
2022-12-23T13:32:01.042Z,14.12
2022-12-23T13:34:33.633Z,14.12
2022-12-23T13:37:17.009Z,14.20
2022-12-23T13:40:04.863Z,14.27
2022-12-23T13:42:35.080Z,14.31
2022-12-23T13:45:03.363Z,14.29
2022-12-23T13:47:30.031Z,14.24
2022-12-23T13:50:04.653Z,14.21
2022-12-23T13:52:38.626Z,14.16
2022-12-23T13:55:05.154Z,14.07
2022-12-23T13:57:44.029Z,14.02
2022-12-23T14:00:16.432Z,14.01
2022-12-23T14:02:49.463Z,14.08
2022-12-23T14:05:34.817Z,14.19
2022-12-23T14:08:04.333Z,14.25
2022-12-23T14:10:31.417Z,14.16
2022-12-23T14:13:05.943Z,14.15
2022-12-23T14:16:04.933Z,14.14
2022-12-23T14:18:46.749Z,14.13
2022-12-23T14:21:13.204Z,14.18
2022-12-23T14:23:39.681Z,14.21
2022-12-23T14:26:06.135Z,14.25
2022-12-23T14:28:51.522Z,14.25
2022-12-23T14:31:35.964Z,14.23
2022-12-23T14:34:07.198Z,14.25
2022-12-23T14:36:33.970Z,14.18
2022-12-23T14:39:12.787Z,14.24
2022-12-23T14:41:48.095Z,14.33
2022-12-23T14:44:19.995Z,14.29
2022-12-23T14:46:46.543Z,14.23
2022-12-23T14:49:38.368Z,14.25
2022-12-23T14:52:19.625Z,14.29
2022-12-23T14:55:06.060Z,14.32
2022-12-23T14:57:33.776Z,14.30
2022-12-23T15:00:01.939Z,14.29
2022-12-23T15:02:34.658Z,14.27
2022-12-23T15:05:01.504Z,14.22
2022-12-23T15:07:34.155Z,14.22
2022-12-23T15:10:05.823Z,14.18
2022-12-23T15:12:33.824Z,14.20
2022-12-23T15:15:03.242Z,14.19
2022-12-23T15:17:29.912Z,14.15
2022-12-23T15:20:05.590Z,14.19
2022-12-23T15:22:32.825Z,14.20
2022-12-23T15:24:59.618Z,14.20
2022-12-23T15:27:29.391Z,14.19
2022-12-23T15:29:57.012Z,14.24
2022-12-23T15:32:24.587Z,14.25
2022-12-23T15:34:52.030Z,14.28
2022-12-23T15:37:24.865Z,14.31
2022-12-23T15:39:57.988Z,14.32
2022-12-23T15:42:31.752Z,14.29
2022-12-23T15:44:58.669Z,14.27
2022-12-23T15:47:29.519Z,14.22
2022-12-23T15:49:57.939Z,14.24
2022-12-23T15:52:24.944Z,14.23
2022-12-23T15:55:01.824Z,14.22
2022-12-23T15:57:28.757Z,14.28
2022-12-23T15:59:55.788Z,14.29
2022-12-23T16:02:59.599Z,14.29
2022-12-23T16:05:38.542Z,14.32
2022-12-23T16:08:10.612Z,14.32
2022-12-23T16:10:37.665Z,14.28
2022-12-23T16:13:04.128Z,14.31
2022-12-23T16:15:32.139Z,14.25
2022-12-23T16:18:11.790Z,14.24
2022-12-23T16:20:49.526Z,14.28
2022-12-23T16:23:17.118Z,14.31
2022-12-23T16:25:52.752Z,14.38
2022-12-23T16:28:24.424Z,14.40
2022-12-23T16:30:56.462Z,14.51
2022-12-23T16:33:25.572Z,14.61
2022-12-23T16:35:53.628Z,14.66
2022-12-23T16:38:21.757Z,14.67
2022-12-23T16:40:49.733Z,14.73
2022-12-23T16:43:16.797Z,14.74
2022-12-23T16:45:44.420Z,14.74
2022-12-23T16:48:20.457Z,14.80
2022-12-23T16:50:47.065Z,14.78
2022-12-23T16:53:13.635Z,14.75
2022-12-23T16:55:46.187Z,14.71
2022-12-23T16:58:16.994Z,14.73
2022-12-23T17:00:44.638Z,14.76
2022-12-23T17:03:15.955Z,14.69
2022-12-23T17:05:42.853Z,14.65
2022-12-23T17:08:09.857Z,14.66
2022-12-23T17:10:36.948Z,14.65
2022-12-23T17:13:03.764Z,14.71
2022-12-23T17:15:30.744Z,14.72
2022-12-23T17:17:57.556Z,14.74
2022-12-23T17:20:24.605Z,14.76
2022-12-23T17:22:58.115Z,14.76
2022-12-23T17:25:26.768Z,14.79
2022-12-23T17:27:53.845Z,14.89
2022-12-23T17:30:22.069Z,14.92
2022-12-23T17:32:57.906Z,14.94
2022-12-23T17:35:25.128Z,15.01
2022-12-23T17:37:52.333Z,15.03
2022-12-23T17:40:19.801Z,15.05
2022-12-23T17:42:47.139Z,15.02
2022-12-23T17:45:24.580Z,14.97
2022-12-23T17:47:51.386Z,14.98
2022-12-23T17:50:17.884Z,15.01
2022-12-23T17:52:44.468Z,15.06
2022-12-23T17:55:16.768Z,15.14
2022-12-23T17:57:43.261Z,15.21
2022-12-23T18:00:10.081Z,15.19
2022-12-23T18:02:39.647Z,15.20
2022-12-23T18:05:18.482Z,15.23
2022-12-23T18:07:45.253Z,15.22
2022-12-23T18:10:19.098Z,15.29
2022-12-23T18:12:47.426Z,15.31
2022-12-23T18:15:24.231Z,15.31
2022-12-23T18:17:51.449Z,15.16
2022-12-23T18:20:19.782Z,15.01
2022-12-23T18:22:47.830Z,14.86
2022-12-23T18:25:19.395Z,14.78
2022-12-23T18:27:46.453Z,14.76
2022-12-23T18:30:13.400Z,14.78
2022-12-23T18:32:40.913Z,14.71
2022-12-23T18:35:27.569Z,14.68
2022-12-23T18:37:54.531Z,14.65
2022-12-23T18:40:21.395Z,14.65
2022-12-23T18:42:48.063Z,14.67
2022-12-23T18:45:23.598Z,14.70
2022-12-23T18:47:50.447Z,14.77
2022-12-23T18:50:17.204Z,14.78
2022-12-23T18:52:43.752Z,14.78
2022-12-23T18:55:12.513Z,14.73
2022-12-23T18:57:39.368Z,14.74
2022-12-23T19:00:07.076Z,14.75
2022-12-23T19:02:34.013Z,14.75
2022-12-23T19:05:00.814Z,14.71
2022-12-23T19:07:27.627Z,14.70
2022-12-23T19:09:54.256Z,14.68
2022-12-23T19:12:20.866Z,14.68
2022-12-23T19:14:47.573Z,14.67
2022-12-23T19:17:14.570Z,14.62
2022-12-23T19:19:41.308Z,14.62
2022-12-23T19:22:08.700Z,14.64
2022-12-23T19:24:35.422Z,14.66
2022-12-23T19:27:02.034Z,14.56
2022-12-23T19:29:28.570Z,14.50
2022-12-23T19:31:56.128Z,14.43
2022-12-23T19:34:22.973Z,14.45
2022-12-23T19:36:49.847Z,14.49
2022-12-23T19:39:18.309Z,14.52
2022-12-23T19:41:45.217Z,14.57
2022-12-23T19:44:11.922Z,14.60
2022-12-23T19:46:38.536Z,14.60
2022-12-23T19:49:05.149Z,14.59
2022-12-23T19:51:32.308Z,14.57
2022-12-23T19:53:59.016Z,14.53
2022-12-23T19:56:29.780Z,14.52
2022-12-23T19:58:57.183Z,14.54
2022-12-23T20:01:25.852Z,14.53
2022-12-23T20:03:53.461Z,14.48
2022-12-23T20:06:22.045Z,14.44
2022-12-23T20:08:48.973Z,14.43
2022-12-23T20:11:23.006Z,14.40
2022-12-23T20:13:53.963Z,14.39
2022-12-23T20:16:21.005Z,14.36
2022-12-23T20:18:47.697Z,14.41
2022-12-23T20:21:14.610Z,14.37
2022-12-23T20:23:41.425Z,14.38
2022-12-23T20:26:08.074Z,14.40
2022-12-23T20:28:34.665Z,14.40
2022-12-23T20:31:04.451Z,14.43
2022-12-23T20:33:31.017Z,14.39
2022-12-23T20:35:57.769Z,14.34
2022-12-23T20:38:24.499Z,14.27
2022-12-23T20:40:51.161Z,14.14
2022-12-23T20:43:18.666Z,14.07
2022-12-23T20:45:46.279Z,13.98
2022-12-23T20:48:13.205Z,13.91
2022-12-23T20:50:41.291Z,13.84
2022-12-23T20:53:08.152Z,13.81
2022-12-23T20:55:39.819Z,13.78
2022-12-23T20:58:25.125Z,13.80
2022-12-23T21:00:52.202Z,13.88
2022-12-23T21:03:25.295Z,13.95
2022-12-23T21:05:56.245Z,14.01
2022-12-23T21:08:22.892Z,14.12
2022-12-23T21:10:53.747Z,14.18
2022-12-23T21:13:20.701Z,14.24
2022-12-23T21:15:47.245Z,14.25
2022-12-23T21:18:14.437Z,14.29
2022-12-23T21:20:41.539Z,14.36
2022-12-23T21:23:08.310Z,14.37
2022-12-23T21:25:35.288Z,14.40
2022-12-23T21:28:01.978Z,14.40
2022-12-23T21:30:28.654Z,14.39
2022-12-23T21:33:00.244Z,14.43
2022-12-23T21:35:26.992Z,14.49
2022-12-23T21:37:53.595Z,14.45
2022-12-23T21:40:20.419Z,14.39
2022-12-23T21:42:50.167Z,14.33
2022-12-23T21:45:16.904Z,14.30
2022-12-23T21:47:43.819Z,14.25
2022-12-23T21:50:10.525Z,14.16
2022-12-23T21:52:37.197Z,14.15
2022-12-23T21:55:04.057Z,14.06
2022-12-23T21:57:30.687Z,13.99
2022-12-23T21:59:57.311Z,13.95
2022-12-23T22:02:23.933Z,13.84
2022-12-23T22:04:50.734Z,13.78
2022-12-23T22:07:17.299Z,13.71
2022-12-23T22:09:43.917Z,13.70
2022-12-23T22:12:10.529Z,13.66
2022-12-23T22:14:37.058Z,13.72
2022-12-23T22:17:03.821Z,13.74
2022-12-23T22:19:30.397Z,13.78
2022-12-23T22:21:57.016Z,13.88
2022-12-23T22:24:25.949Z,13.83
2022-12-23T22:26:52.766Z,13.84
2022-12-23T22:29:19.345Z,13.83
2022-12-23T22:31:50.229Z,13.87
2022-12-23T22:34:18.465Z,13.92
2022-12-23T22:36:45.588Z,13.99
2022-12-23T22:39:19.417Z,13.97
2022-12-23T22:41:46.560Z,13.95
2022-12-23T22:44:13.361Z,13.95
2022-12-23T22:46:40.044Z,13.93
2022-12-23T22:49:06.662Z,13.88
2022-12-23T22:51:33.195Z,13.82
2022-12-23T22:54:02.388Z,13.80
2022-12-23T22:56:29.170Z,13.80
2022-12-23T22:58:56.402Z,13.79
2022-12-23T23:01:24.542Z,13.87
2022-12-23T23:03:56.851Z,13.88
2022-12-23T23:06:25.133Z,13.91
2022-12-23T23:08:51.777Z,13.85
2022-12-23T23:11:18.277Z,13.79
2022-12-23T23:13:44.850Z,13.71
2022-12-23T23:16:11.591Z,13.68
2022-12-23T23:18:41.013Z,13.69
2022-12-23T23:21:08.256Z,13.71
2022-12-23T23:23:35.318Z,13.76
2022-12-23T23:26:01.943Z,13.78
2022-12-23T23:28:28.699Z,13.81
2022-12-23T23:31:16.795Z,13.78
2022-12-23T23:33:42.011Z,13.75
2022-12-23T23:36:08.730Z,13.80
2022-12-23T23:38:35.413Z,13.84
2022-12-23T23:41:02.071Z,13.90
2022-12-23T23:43:28.729Z,14.00
2022-12-23T23:45:57.719Z,14.06
2022-12-23T23:48:24.374Z,14.09
2022-12-23T23:50:51.248Z,13.99
2022-12-23T23:53:18.010Z,13.92
2022-12-23T23:55:44.598Z,13.91
2022-12-23T23:58:13.877Z,13.86
